createdAt,value
2022-11-24T00:00:04.120Z,7.35
2022-11-24T00:01:04.129Z,7.35
2022-11-24T00:02:04.193Z,7.38
2022-11-24T00:03:04.215Z,7.39
2022-11-24T00:04:04.078Z,7.39
2022-11-24T00:05:04.060Z,7.38
2022-11-24T00:06:04.075Z,7.38
2022-11-24T00:07:04.063Z,7.40
2022-11-24T00:08:04.040Z,7.39
2022-11-24T00:09:04.037Z,7.39
2022-11-24T00:10:04.033Z,7.39
2022-11-24T00:12:20.373Z,7.43
2022-11-24T00:13:27.361Z,7.40
2022-11-24T00:15:20.851Z,7.43
2022-11-24T00:16:21.886Z,7.40
2022-11-24T00:17:21.864Z,7.42
2022-11-24T00:18:21.818Z,7.42
2022-11-24T00:19:21.794Z,7.40
2022-11-24T00:20:21.825Z,7.42
2022-11-24T00:21:21.782Z,7.40
2022-11-24T00:22:21.777Z,7.40
2022-11-24T00:23:21.774Z,7.42
2022-11-24T00:24:21.759Z,7.45
2022-11-24T00:25:21.740Z,7.45
2022-11-24T00:26:21.732Z,7.43
2022-11-24T00:27:21.718Z,7.45
2022-11-24T00:28:21.715Z,7.48
2022-11-24T00:29:21.738Z,7.48
2022-11-24T00:30:21.709Z,7.48
2022-11-24T00:31:21.810Z,7.47
2022-11-24T00:32:21.682Z,7.48
2022-11-24T00:33:21.648Z,7.50
2022-11-24T00:34:21.652Z,7.51
2022-11-24T00:35:21.653Z,7.51
2022-11-24T00:36:21.623Z,7.50
2022-11-24T00:37:21.610Z,7.50
2022-11-24T00:38:21.628Z,7.48
2022-11-24T00:39:21.592Z,7.48
2022-11-24T00:40:21.590Z,7.48
2022-11-24T00:41:21.607Z,7.48
2022-11-24T00:42:21.583Z,7.45
2022-11-24T00:43:21.553Z,7.43
2022-11-24T00:44:21.574Z,7.45
2022-11-24T00:45:21.524Z,7.43
2022-11-24T00:46:21.599Z,7.43
2022-11-24T00:47:21.708Z,7.45
2022-11-24T00:48:21.502Z,7.45
2022-11-24T00:49:21.487Z,7.47
2022-11-24T00:50:21.495Z,7.43
2022-11-24T00:51:21.471Z,7.45
2022-11-24T00:52:21.466Z,7.45
2022-11-24T00:53:21.447Z,7.45
2022-11-24T00:54:21.436Z,7.45
2022-11-24T00:55:21.438Z,7.47
2022-11-24T00:56:21.423Z,7.45
2022-11-24T00:57:21.429Z,7.43
2022-11-24T00:58:21.401Z,7.43
2022-11-24T00:59:21.371Z,7.42
2022-11-24T01:00:21.395Z,7.42
2022-11-24T01:01:21.496Z,7.43
2022-11-24T01:02:21.403Z,7.42
2022-11-24T01:03:21.339Z,7.42
2022-11-24T01:04:21.339Z,7.43
2022-11-24T01:05:21.324Z,7.42
2022-11-24T01:06:21.303Z,7.40
2022-11-24T01:07:21.435Z,7.40
2022-11-24T01:08:21.310Z,7.39
2022-11-24T01:09:21.269Z,7.40
2022-11-24T01:10:21.270Z,7.40
2022-11-24T01:11:21.254Z,7.42
2022-11-24T01:12:21.244Z,7.40
2022-11-24T01:13:21.265Z,7.40
2022-11-24T01:14:21.235Z,7.40
2022-11-24T01:15:21.215Z,7.40
2022-11-24T01:16:21.262Z,7.43
2022-11-24T01:17:21.177Z,7.43
2022-11-24T01:18:21.183Z,7.42
2022-11-24T01:19:21.181Z,7.42
2022-11-24T01:20:21.153Z,7.40
2022-11-24T01:21:21.155Z,7.43
2022-11-24T01:22:21.130Z,7.40
2022-11-24T01:23:21.126Z,7.43
2022-11-24T01:24:21.122Z,7.40
2022-11-24T01:25:21.120Z,7.45
2022-11-24T01:26:21.096Z,7.42
2022-11-24T01:27:21.104Z,7.43
2022-11-24T01:28:21.080Z,7.40
2022-11-24T01:29:21.061Z,7.40
2022-11-24T01:30:21.053Z,7.43
2022-11-24T01:31:21.143Z,7.45
2022-11-24T01:32:21.043Z,7.43
2022-11-24T01:33:21.018Z,7.45
2022-11-24T01:34:21.002Z,7.42
2022-11-24T01:35:21.000Z,7.43
2022-11-24T01:36:20.992Z,7.42
2022-11-24T01:37:21.005Z,7.42
2022-11-24T01:38:20.981Z,7.42
2022-11-24T01:39:20.951Z,7.42
2022-11-24T01:40:20.953Z,7.43
2022-11-24T01:41:20.948Z,7.43
2022-11-24T01:42:20.938Z,7.45
2022-11-24T01:43:20.912Z,7.47
2022-11-24T01:44:20.911Z,7.47
2022-11-24T01:45:20.899Z,7.47
2022-11-24T01:46:20.956Z,7.51
2022-11-24T01:47:20.895Z,7.50
2022-11-24T01:48:24.474Z,7.51
2022-11-24T01:49:20.865Z,7.50
2022-11-24T01:50:20.837Z,7.53
2022-11-24T01:51:20.839Z,7.51
2022-11-24T01:52:20.823Z,7.53
2022-11-24T01:53:20.824Z,7.53
2022-11-24T01:54:20.825Z,7.53
2022-11-24T01:55:20.806Z,7.51
2022-11-24T01:56:20.792Z,7.51
2022-11-24T01:57:20.787Z,7.51
2022-11-24T01:58:20.830Z,7.50
2022-11-24T01:59:20.745Z,7.51
2022-11-24T02:00:20.766Z,7.54
2022-11-24T02:01:20.817Z,7.54
2022-11-24T02:02:20.751Z,7.56
2022-11-24T02:03:20.709Z,7.57
2022-11-24T02:04:20.704Z,7.57
2022-11-24T02:05:20.693Z,7.58
2022-11-24T02:06:20.691Z,7.60
2022-11-24T02:07:20.729Z,7.63
2022-11-24T02:08:20.668Z,7.61
2022-11-24T02:09:22.203Z,7.66
2022-11-24T06:00:56.475Z,8.44
2022-11-24T06:01:57.587Z,8.42
2022-11-24T06:02:57.565Z,8.44
2022-11-24T06:03:57.435Z,8.45
2022-11-24T06:04:57.415Z,8.45
2022-11-24T06:05:57.429Z,8.45
2022-11-24T06:06:57.384Z,8.48
2022-11-24T06:07:57.522Z,8.48
2022-11-24T06:08:57.372Z,8.48
2022-11-24T06:09:57.384Z,8.49
2022-11-24T06:10:57.366Z,8.51
2022-11-24T06:11:57.362Z,8.52
2022-11-24T06:12:57.327Z,8.53
2022-11-24T06:13:57.468Z,8.52
2022-11-24T06:14:57.324Z,8.53
2022-11-24T06:15:57.324Z,8.53
2022-11-24T06:17:03.323Z,8.53
2022-11-24T06:17:57.312Z,8.55
2022-11-24T06:18:57.275Z,8.55
2022-11-24T06:19:57.270Z,8.56
2022-11-24T06:21:10.279Z,8.58
2022-11-24T06:21:57.233Z,8.56
2022-11-24T06:22:57.235Z,8.56
2022-11-24T06:23:57.211Z,8.56
2022-11-24T06:24:57.249Z,8.58
2022-11-24T06:25:57.198Z,8.58
2022-11-24T06:26:57.278Z,8.60
2022-11-24T06:27:57.173Z,8.60
2022-11-24T06:28:57.170Z,8.61
2022-11-24T06:29:57.175Z,8.58
2022-11-24T06:30:57.199Z,8.60
2022-11-24T06:31:57.127Z,8.60
2022-11-24T06:32:57.102Z,8.61
2022-11-24T06:33:57.087Z,8.60
2022-11-24T06:34:57.055Z,8.61
2022-11-24T06:35:57.033Z,8.64
2022-11-24T06:36:57.028Z,8.61
2022-11-24T06:37:57.039Z,8.64
2022-11-24T06:38:57.010Z,8.63
2022-11-24T06:39:57.023Z,8.64
2022-11-24T06:40:57.000Z,8.63
2022-11-24T06:41:56.965Z,8.64
2022-11-24T06:42:57.011Z,8.64
2022-11-24T06:43:56.948Z,8.63
2022-11-24T06:44:56.975Z,8.64
2022-11-24T06:45:56.983Z,8.64
2022-11-24T06:46:56.937Z,8.66
2022-11-24T06:47:56.899Z,8.66
2022-11-24T06:48:56.905Z,8.66
2022-11-24T06:49:56.919Z,8.67
2022-11-24T06:50:56.903Z,8.67
2022-11-24T06:51:56.872Z,8.66
2022-11-24T06:52:56.874Z,8.64
2022-11-24T06:53:56.842Z,8.66
2022-11-24T06:54:56.855Z,8.66
2022-11-24T06:55:56.858Z,8.67
2022-11-24T06:56:56.818Z,8.67
2022-11-24T06:57:56.803Z,8.66
2022-11-24T06:58:56.800Z,8.67
2022-11-24T06:59:56.779Z,8.69
2022-11-24T07:00:56.818Z,8.67
2022-11-24T07:01:56.778Z,8.69
2022-11-24T07:02:56.838Z,8.67
2022-11-24T07:03:56.734Z,8.67
2022-11-24T07:04:56.738Z,8.69
2022-11-24T07:05:56.714Z,8.70
2022-11-24T07:06:56.745Z,8.70
2022-11-24T07:07:56.747Z,8.70
2022-11-24T07:08:56.689Z,8.70
2022-11-24T07:09:56.712Z,8.71
2022-11-24T07:10:56.670Z,8.70
2022-11-24T07:11:56.683Z,8.70
2022-11-24T07:12:56.656Z,8.70
2022-11-24T07:13:59.877Z,8.71
2022-11-24T07:14:56.649Z,8.71
2022-11-24T07:15:56.634Z,8.70
2022-11-24T07:16:56.805Z,8.69
2022-11-24T07:17:56.586Z,8.70
2022-11-24T07:18:56.613Z,8.73
2022-11-24T07:19:56.567Z,8.69
2022-11-24T07:20:56.611Z,8.70
2022-11-24T07:21:56.555Z,8.70
2022-11-24T07:22:56.560Z,8.70
2022-11-24T07:23:56.526Z,8.69
2022-11-24T07:24:56.532Z,8.70
2022-11-24T07:25:56.500Z,8.67
2022-11-24T07:26:56.545Z,8.70
2022-11-24T07:27:56.491Z,8.70
2022-11-24T07:28:56.500Z,8.69
2022-11-24T07:29:56.467Z,8.70
2022-11-24T07:30:56.464Z,8.70
2022-11-24T07:32:00.722Z,8.70
2022-11-24T07:32:56.460Z,8.70
2022-11-24T07:33:56.440Z,8.70
2022-11-24T07:34:56.415Z,8.70
2022-11-24T07:35:56.425Z,8.69
2022-11-24T07:36:56.416Z,8.70
2022-11-24T07:37:56.368Z,8.69
2022-11-24T07:38:56.405Z,8.69
2022-11-24T07:39:56.370Z,8.69
2022-11-24T07:40:56.354Z,8.70
2022-11-24T07:41:56.376Z,8.70
2022-11-24T07:42:56.348Z,8.69
2022-11-24T07:43:56.354Z,8.70
2022-11-24T07:44:56.319Z,8.70
2022-11-24T07:45:56.396Z,8.69
2022-11-24T07:46:56.307Z,8.70
2022-11-24T07:47:56.296Z,8.70
2022-11-24T07:48:56.295Z,8.71
2022-11-24T07:49:56.613Z,8.74
2022-11-24T07:50:56.568Z,8.71
2022-11-24T07:51:56.230Z,8.71
2022-11-24T07:52:56.249Z,8.73
2022-11-24T07:53:56.268Z,8.70
2022-11-24T07:54:56.243Z,8.70
2022-11-24T07:55:56.207Z,8.71
2022-11-24T07:56:56.358Z,8.71
2022-11-24T07:57:56.156Z,8.71
2022-11-24T07:58:56.239Z,8.71
2022-11-24T07:59:56.164Z,8.71
2022-11-24T08:00:56.137Z,8.71
2022-11-24T08:01:56.234Z,8.71
2022-11-24T08:02:56.124Z,8.71
2022-11-24T08:03:56.171Z,8.71
2022-11-24T08:04:56.109Z,8.71
2022-11-24T08:06:22.466Z,8.71
2022-11-24T08:06:56.110Z,8.73
2022-11-24T08:07:56.155Z,8.71
2022-11-24T08:08:56.072Z,8.73
2022-11-24T08:09:56.078Z,8.71
2022-11-24T08:10:56.059Z,8.73
2022-11-24T08:11:56.038Z,8.73
2022-11-24T08:12:56.034Z,8.74
2022-11-24T08:13:55.994Z,8.74
2022-11-24T08:14:56.031Z,8.76
2022-11-24T08:15:55.989Z,8.76
2022-11-24T08:16:56.081Z,8.76
2022-11-24T08:17:55.956Z,8.78
2022-11-24T08:18:55.998Z,8.78
2022-11-24T08:19:55.945Z,8.78
2022-11-24T08:20:55.930Z,8.79
2022-11-24T08:21:55.945Z,8.79
2022-11-24T08:22:55.909Z,8.79
2022-11-24T08:23:55.886Z,8.78
2022-11-24T08:24:55.928Z,8.79
2022-11-24T08:25:57.143Z,8.81
2022-11-24T08:26:55.905Z,8.79
2022-11-24T08:27:55.866Z,8.81
2022-11-24T08:28:55.889Z,8.81
2022-11-24T08:29:55.847Z,8.81
2022-11-24T08:30:55.856Z,8.79
2022-11-24T08:31:55.901Z,8.81
2022-11-24T08:32:55.848Z,8.81
2022-11-24T08:33:56.725Z,8.81
2022-11-24T08:34:59.594Z,8.82
2022-11-24T08:35:55.842Z,8.82
2022-11-24T08:36:55.834Z,8.82
2022-11-24T08:38:00.311Z,8.84
2022-11-24T08:38:55.814Z,8.84
2022-11-24T08:39:55.731Z,8.87
2022-11-24T08:40:55.733Z,8.88
2022-11-24T08:41:55.727Z,8.88
2022-11-24T08:42:55.725Z,8.89
2022-11-24T08:43:55.720Z,8.89
2022-11-24T08:44:59.065Z,8.92
2022-11-24T08:45:55.699Z,8.91
2022-11-24T08:46:55.678Z,8.91
2022-11-24T08:47:55.651Z,8.94
2022-11-24T08:48:55.690Z,8.94
2022-11-24T08:49:55.628Z,8.97
2022-11-24T08:50:55.636Z,8.95
2022-11-24T08:51:55.584Z,8.99
2022-11-24T08:52:55.594Z,8.97
2022-11-24T08:53:55.586Z,8.97
2022-11-24T08:54:55.584Z,9.00
2022-11-24T08:55:55.591Z,9.02
2022-11-24T08:56:55.575Z,9.02
2022-11-24T08:57:55.527Z,9.00
2022-11-24T08:58:55.706Z,9.02
2022-11-24T08:59:55.517Z,9.00
2022-11-24T09:00:55.634Z,9.03
2022-11-24T09:01:55.594Z,9.02
2022-11-24T09:02:55.500Z,9.04
2022-11-24T09:03:55.570Z,9.04
2022-11-24T09:04:55.501Z,9.03
2022-11-24T09:05:55.462Z,9.04
2022-11-24T09:06:55.503Z,9.06
2022-11-24T09:07:55.473Z,9.04
2022-11-24T09:08:55.443Z,9.04
2022-11-24T09:09:55.425Z,9.04
2022-11-24T09:10:55.423Z,9.04
2022-11-24T09:11:55.380Z,9.04
2022-11-24T09:12:55.417Z,9.08
2022-11-24T09:13:55.367Z,9.06
2022-11-24T09:14:55.370Z,9.06
2022-11-24T09:15:55.335Z,9.06
2022-11-24T09:16:55.390Z,9.08
2022-11-24T09:17:55.328Z,9.10
2022-11-24T09:18:55.339Z,9.08
2022-11-24T09:19:55.321Z,9.10
2022-11-24T09:20:55.292Z,9.10
2022-11-24T09:21:55.304Z,9.13
2022-11-24T09:22:55.288Z,9.10
2022-11-24T09:23:55.268Z,9.10
2022-11-24T09:24:55.263Z,9.10
2022-11-24T09:25:55.255Z,9.13
2022-11-24T09:26:55.243Z,9.14
2022-11-24T09:27:55.250Z,9.14
2022-11-24T09:28:55.235Z,9.16
2022-11-24T09:29:55.217Z,9.16
2022-11-24T09:30:55.337Z,9.19
2022-11-24T09:31:55.203Z,9.18
2022-11-24T09:32:55.160Z,9.21
2022-11-24T09:33:55.175Z,9.21
2022-11-24T09:34:55.177Z,9.23
2022-11-24T09:35:55.154Z,9.26
2022-11-24T09:36:55.149Z,9.25
2022-11-24T09:37:55.124Z,9.26
2022-11-24T09:38:55.139Z,9.26
2022-11-24T09:39:55.133Z,9.28
2022-11-24T09:40:55.095Z,9.28
2022-11-24T09:41:55.094Z,9.28
2022-11-24T09:42:55.096Z,9.29
2022-11-24T09:43:55.239Z,9.32
2022-11-24T09:44:55.062Z,9.36
2022-11-24T09:46:05.525Z,9.37
2022-11-24T09:46:55.082Z,9.37
2022-11-24T09:47:55.011Z,9.40
2022-11-24T09:48:55.002Z,9.41
2022-11-24T09:49:54.977Z,9.43
2022-11-24T09:50:55.002Z,9.47
2022-11-24T09:51:55.010Z,9.46
2022-11-24T09:52:55.075Z,9.48
2022-11-24T09:53:54.955Z,9.50
2022-11-24T09:54:54.938Z,9.50
2022-11-24T09:55:54.911Z,9.54
2022-11-24T09:56:54.923Z,9.54
2022-11-24T09:57:54.929Z,9.55
2022-11-24T09:58:54.899Z,9.55
2022-11-24T09:59:54.929Z,9.55
2022-11-24T10:00:54.877Z,9.56
2022-11-24T10:01:54.927Z,9.55
2022-11-24T10:02:54.849Z,9.56
2022-11-24T10:03:54.867Z,9.58
2022-11-24T10:04:54.981Z,9.59
2022-11-24T10:05:54.807Z,9.59
2022-11-24T10:06:54.857Z,9.59
2022-11-24T10:07:54.846Z,9.56
2022-11-24T10:08:54.823Z,9.55
2022-11-24T10:09:54.776Z,9.56
2022-11-24T10:10:54.780Z,9.55
2022-11-24T10:11:54.750Z,9.55
2022-11-24T10:12:54.772Z,9.56
2022-11-24T10:13:54.747Z,9.59
2022-11-24T10:14:54.746Z,9.59
2022-11-24T10:15:54.776Z,9.62
2022-11-24T10:16:54.717Z,9.65
2022-11-24T10:17:54.689Z,9.68
2022-11-24T10:18:54.717Z,9.72
2022-11-24T10:19:54.664Z,9.73
2022-11-24T10:20:54.716Z,9.77
2022-11-24T10:21:54.669Z,9.79
2022-11-24T10:22:54.653Z,9.80
2022-11-24T10:23:54.759Z,9.83
2022-11-24T10:24:54.976Z,9.86
2022-11-24T10:25:54.617Z,9.86
2022-11-24T10:26:54.607Z,9.89
2022-11-24T10:27:54.596Z,9.91
2022-11-24T10:28:54.591Z,9.95
2022-11-24T10:29:54.586Z,9.97
2022-11-24T10:30:54.658Z,9.99
2022-11-24T10:31:54.696Z,9.99
2022-11-24T10:32:54.526Z,10.05
2022-11-24T10:33:54.536Z,10.09
2022-11-24T10:34:54.528Z,10.12
2022-11-24T10:35:54.512Z,10.13
2022-11-24T10:36:54.527Z,10.16
2022-11-24T10:37:54.485Z,10.17
2022-11-24T10:38:54.484Z,10.19
2022-11-24T10:39:59.643Z,10.22
2022-11-24T10:40:57.481Z,10.23
2022-11-24T10:41:54.468Z,10.23
2022-11-24T10:42:54.427Z,10.23
2022-11-24T10:43:54.419Z,10.23
2022-11-24T10:44:54.424Z,10.23
2022-11-24T10:45:54.459Z,10.23
2022-11-24T10:46:54.434Z,10.20
2022-11-24T10:47:54.389Z,10.23
2022-11-24T10:48:54.402Z,10.25
2022-11-24T10:49:54.378Z,10.25
2022-11-24T10:50:54.384Z,10.26
2022-11-24T10:51:54.341Z,10.28
2022-11-24T10:52:54.323Z,10.31
2022-11-24T10:53:54.338Z,10.30
2022-11-24T10:54:54.301Z,10.31
2022-11-24T10:55:54.299Z,10.31
2022-11-24T10:56:55.280Z,10.33
2022-11-24T10:57:54.277Z,10.34
2022-11-24T10:58:54.244Z,10.34
2022-11-24T10:59:54.246Z,10.37
2022-11-24T11:00:54.283Z,10.37
2022-11-24T11:01:54.312Z,10.38
2022-11-24T11:02:54.333Z,10.41
2022-11-24T11:03:54.228Z,10.42
2022-11-24T11:04:54.211Z,10.46
2022-11-24T11:05:54.217Z,10.49
2022-11-24T11:06:54.182Z,10.51
2022-11-24T11:07:54.230Z,10.53
2022-11-24T11:08:54.142Z,10.53
2022-11-24T11:09:54.254Z,10.54
2022-11-24T11:10:54.145Z,10.56
2022-11-24T11:11:54.150Z,10.57
2022-11-24T11:12:54.099Z,10.60
2022-11-24T11:13:59.769Z,10.59
2022-11-24T11:14:54.080Z,10.61
2022-11-24T11:15:54.156Z,10.60
2022-11-24T11:16:54.060Z,10.60
2022-11-24T11:17:54.090Z,10.60
2022-11-24T11:18:54.058Z,10.61
2022-11-24T11:20:00.390Z,10.61
2022-11-24T11:20:54.042Z,10.63
2022-11-24T11:21:54.038Z,10.60
2022-11-24T11:22:54.022Z,10.60
2022-11-24T11:23:54.027Z,10.60
2022-11-24T11:24:53.980Z,10.59
2022-11-24T11:25:54.002Z,10.60
2022-11-24T11:26:53.947Z,10.56
2022-11-24T11:27:53.958Z,10.54
2022-11-24T11:28:54.025Z,10.53
2022-11-24T11:34:15.857Z,10.46
2022-11-24T11:34:53.870Z,10.44
2022-11-24T11:35:53.868Z,10.42
2022-11-24T11:36:53.838Z,10.42
2022-11-24T11:37:53.922Z,10.44
2022-11-24T11:38:53.852Z,10.42
2022-11-24T11:39:53.831Z,10.41
2022-11-24T11:40:53.806Z,10.44
2022-11-24T11:41:53.835Z,10.44
2022-11-24T11:43:02.271Z,10.46
2022-11-24T11:43:53.831Z,10.49
2022-11-24T11:44:53.797Z,10.46
2022-11-24T11:45:53.971Z,10.46
2022-11-24T11:46:55.744Z,10.48
2022-11-24T11:47:53.750Z,10.48
2022-11-24T11:48:53.748Z,10.48
2022-11-24T11:49:53.744Z,10.48
2022-11-24T11:51:21.725Z,10.48
2022-11-24T11:51:53.727Z,10.48
2022-11-24T11:52:53.666Z,10.49
2022-11-24T11:53:53.923Z,10.49
2022-11-24T11:54:53.664Z,10.48
2022-11-24T11:55:53.672Z,10.49
2022-11-24T11:56:53.678Z,10.48
2022-11-24T11:57:53.650Z,10.51
2022-11-24T11:58:53.639Z,10.49
2022-11-24T11:59:53.652Z,10.53
2022-11-24T12:00:53.599Z,10.51
2022-11-24T12:01:53.648Z,10.54
2022-11-24T12:02:54.261Z,10.53
2022-11-24T12:03:53.742Z,10.54
2022-11-24T12:04:53.563Z,10.57
2022-11-24T12:05:53.552Z,10.57
2022-11-24T12:06:53.540Z,10.60
2022-11-24T12:07:53.615Z,10.61
2022-11-24T12:09:19.243Z,10.64
2022-11-24T12:09:53.526Z,10.71
2022-11-24T12:10:53.503Z,10.75
2022-11-24T12:11:53.513Z,10.81
2022-11-24T12:12:53.463Z,10.86
2022-11-24T12:13:53.472Z,10.90
2022-11-24T12:14:53.483Z,10.94
2022-11-24T12:15:53.547Z,10.97
2022-11-24T12:16:59.506Z,10.97
2022-11-24T12:17:53.426Z,11.00
2022-11-24T12:18:58.219Z,11.02
2022-11-24T12:19:53.413Z,11.04
2022-11-24T12:20:53.394Z,11.04
2022-11-24T12:21:53.376Z,11.02
2022-11-24T12:22:53.360Z,11.00
2022-11-24T12:23:53.357Z,11.00
2022-11-24T12:24:53.381Z,11.00
2022-11-24T12:25:53.381Z,10.97
2022-11-24T12:26:53.318Z,11.00
2022-11-24T12:27:53.308Z,11.00
2022-11-24T12:28:53.314Z,11.00
2022-11-24T12:29:53.309Z,11.00
2022-11-24T12:30:53.327Z,11.00
2022-11-24T12:31:53.313Z,11.02
2022-11-24T12:32:53.287Z,11.02
2022-11-24T12:33:56.549Z,11.04
2022-11-24T12:34:53.229Z,11.02
2022-11-24T12:35:53.283Z,11.02
2022-11-24T12:36:53.204Z,11.04
2022-11-24T12:37:53.204Z,11.04
2022-11-24T12:38:53.202Z,11.05
2022-11-24T12:39:53.191Z,11.00
2022-11-24T12:40:58.079Z,11.04
2022-11-24T12:41:53.172Z,11.05
2022-11-24T12:42:53.153Z,11.05
2022-11-24T12:43:53.342Z,11.07
2022-11-24T12:44:53.144Z,11.07
2022-11-24T12:45:53.121Z,11.07
2022-11-24T12:46:53.135Z,11.08
2022-11-24T12:47:53.112Z,11.08
2022-11-24T12:48:53.097Z,11.08
2022-11-24T12:49:53.081Z,11.10
2022-11-24T12:50:53.057Z,11.08
2022-11-24T12:51:53.073Z,11.10
2022-11-24T12:52:58.624Z,11.08
2022-11-24T12:53:53.058Z,11.11
2022-11-24T12:54:53.059Z,11.11
2022-11-24T12:55:53.019Z,11.14
2022-11-24T12:56:52.986Z,11.14
2022-11-24T12:57:52.990Z,11.17
2022-11-24T12:58:52.968Z,11.14
2022-11-24T12:59:52.975Z,11.15
2022-11-24T13:00:52.975Z,11.17
2022-11-24T13:01:53.014Z,11.17
2022-11-24T13:02:53.120Z,11.17
2022-11-24T13:03:52.929Z,11.17
2022-11-24T13:04:52.901Z,11.15
2022-11-24T13:05:52.908Z,11.18
2022-11-24T13:06:52.903Z,11.18
2022-11-24T13:07:52.952Z,11.18
2022-11-24T13:08:52.858Z,11.17
2022-11-24T13:09:52.860Z,11.18
2022-11-24T13:10:57.684Z,11.17
2022-11-24T13:11:52.904Z,11.14
2022-11-24T13:12:52.826Z,11.15
2022-11-24T13:13:52.832Z,11.14
2022-11-24T13:14:52.801Z,11.14
2022-11-24T13:16:13.113Z,11.12
2022-11-24T13:17:27.517Z,11.12
2022-11-24T13:18:08.672Z,11.10
2022-11-24T13:18:52.823Z,11.08
2022-11-24T13:19:52.767Z,11.05
2022-11-24T13:20:52.743Z,11.07
2022-11-24T13:21:52.765Z,11.05
2022-11-24T13:22:52.727Z,11.04
2022-11-24T13:23:52.726Z,11.02
2022-11-24T13:24:52.693Z,11.00
2022-11-24T13:25:52.700Z,10.99
2022-11-24T13:26:52.676Z,10.99
2022-11-24T13:27:52.711Z,10.97
2022-11-24T13:29:03.613Z,10.96
2022-11-24T13:29:52.681Z,10.94
2022-11-24T13:30:52.646Z,10.93
2022-11-24T13:31:52.709Z,10.92
2022-11-24T13:32:52.710Z,10.92
2022-11-24T13:33:52.620Z,10.90
2022-11-24T13:34:52.608Z,10.89
2022-11-24T13:35:52.620Z,10.90
2022-11-24T13:36:52.575Z,10.89
2022-11-24T13:37:52.595Z,10.90
2022-11-24T13:38:52.564Z,10.90
2022-11-24T13:39:52.555Z,10.87
2022-11-24T13:41:21.060Z,10.87
2022-11-24T13:41:52.552Z,10.89
2022-11-24T13:42:52.506Z,10.89
2022-11-24T13:43:53.225Z,10.89
2022-11-24T13:44:52.478Z,10.90
2022-11-24T13:45:52.492Z,10.92
2022-11-24T13:46:52.504Z,10.92
2022-11-24T13:47:52.464Z,10.92
2022-11-24T13:48:52.459Z,10.93
2022-11-24T13:49:52.444Z,10.93
2022-11-24T13:50:52.414Z,10.92
2022-11-24T13:51:52.432Z,10.94
2022-11-24T13:52:52.403Z,10.94
2022-11-24T13:53:52.397Z,10.96
2022-11-24T13:54:52.387Z,10.96
2022-11-24T13:55:52.371Z,10.97
2022-11-24T13:56:52.387Z,11.00
2022-11-24T13:57:52.359Z,10.99
2022-11-24T13:58:52.331Z,11.02
2022-11-24T13:59:52.336Z,11.05
2022-11-24T14:00:56.953Z,11.05
2022-11-24T14:01:52.404Z,11.10
2022-11-24T14:02:52.388Z,11.11
2022-11-24T14:04:28.054Z,11.14
2022-11-24T14:04:52.396Z,11.17
2022-11-24T14:05:52.273Z,11.15
2022-11-24T14:06:52.276Z,11.18
2022-11-24T14:07:52.329Z,11.15
2022-11-24T14:08:52.278Z,11.14
2022-11-24T14:09:52.286Z,11.15
2022-11-24T14:10:52.205Z,11.14
2022-11-24T14:11:52.214Z,11.14
2022-11-24T14:12:52.182Z,11.12
2022-11-24T14:13:52.191Z,11.11
2022-11-24T14:14:52.185Z,11.10
2022-11-24T14:15:52.201Z,11.10
2022-11-24T14:16:52.135Z,11.07
2022-11-24T14:17:52.161Z,11.04
2022-11-24T14:18:52.120Z,11.02
2022-11-24T14:19:52.149Z,11.02
2022-11-24T14:20:52.092Z,11.00
2022-11-24T14:21:52.128Z,10.99
2022-11-24T14:22:52.114Z,10.97
2022-11-24T14:23:52.095Z,10.97
2022-11-24T14:24:52.068Z,10.94
2022-11-24T14:25:52.089Z,10.93
2022-11-24T14:26:52.036Z,10.92
2022-11-24T14:27:52.120Z,10.92
2022-11-24T14:28:52.064Z,10.90
2022-11-24T14:29:54.179Z,10.87
2022-11-24T14:30:52.009Z,10.87
2022-11-24T14:31:52.065Z,10.86
2022-11-24T14:32:51.970Z,10.82
2022-11-24T14:33:51.988Z,10.84
2022-11-24T14:34:52.220Z,10.84
2022-11-24T14:35:52.015Z,10.82
2022-11-24T14:36:51.938Z,10.81
2022-11-24T14:37:51.949Z,10.78
2022-11-24T14:38:51.924Z,10.78
2022-11-24T14:39:51.911Z,10.76
2022-11-24T14:40:51.918Z,10.74
2022-11-24T14:41:51.885Z,10.72
2022-11-24T14:42:51.892Z,10.72
2022-11-24T14:43:51.847Z,10.74
2022-11-24T14:44:51.854Z,10.72
2022-11-24T14:45:51.835Z,10.69
2022-11-24T14:46:51.931Z,10.68
2022-11-24T14:47:51.806Z,10.68
2022-11-24T14:48:51.842Z,10.63
2022-11-24T14:49:51.829Z,10.64
2022-11-24T14:50:51.819Z,10.64
2022-11-24T14:51:51.766Z,10.64
2022-11-24T14:52:51.794Z,10.63
2022-11-24T14:53:51.787Z,10.64
2022-11-24T14:54:51.741Z,10.61
2022-11-24T14:55:51.731Z,10.60
2022-11-24T14:56:51.732Z,10.57
2022-11-24T14:57:51.698Z,10.59
2022-11-24T14:58:51.704Z,10.56
2022-11-24T14:59:51.726Z,10.56
2022-11-24T15:00:51.715Z,10.53
2022-11-24T15:01:51.742Z,10.51
2022-11-24T15:02:51.676Z,10.51
2022-11-24T15:03:51.629Z,10.51
2022-11-24T15:05:02.881Z,10.48
2022-11-24T15:05:51.667Z,10.44
2022-11-24T15:06:51.623Z,10.44
2022-11-24T15:07:51.661Z,10.41
2022-11-24T15:08:51.639Z,10.40
2022-11-24T15:09:51.577Z,10.40
2022-11-24T15:10:51.588Z,10.38
2022-11-24T15:11:51.554Z,10.38
2022-11-24T15:12:51.558Z,10.35
2022-11-24T15:13:51.549Z,10.35
2022-11-24T15:14:51.558Z,10.33
2022-11-24T15:15:51.553Z,10.33
2022-11-24T15:16:51.577Z,10.28
2022-11-24T15:17:51.493Z,10.26
2022-11-24T15:18:51.493Z,10.26
2022-11-24T15:19:51.481Z,10.25
2022-11-24T15:20:51.508Z,10.23
2022-11-24T15:21:51.456Z,10.22
2022-11-24T15:22:51.452Z,10.20
2022-11-24T15:23:51.423Z,10.16
2022-11-24T15:24:51.444Z,10.16
2022-11-24T15:25:51.445Z,10.13
2022-11-24T15:26:51.408Z,10.13
2022-11-24T15:27:51.379Z,10.12
2022-11-24T15:28:51.463Z,10.07
2022-11-24T15:29:51.364Z,10.09
2022-11-24T15:30:51.382Z,10.07
2022-11-24T15:31:53.061Z,10.04
2022-11-24T15:32:51.344Z,10.02
2022-11-24T15:33:51.314Z,9.99
2022-11-24T15:34:51.364Z,9.98
2022-11-24T15:35:51.294Z,9.98
2022-11-24T15:36:51.313Z,9.99
2022-11-24T15:37:51.295Z,9.98
2022-11-24T15:38:51.286Z,9.98
2022-11-24T15:39:51.253Z,9.95
2022-11-24T15:40:51.287Z,9.97
2022-11-24T15:41:51.231Z,9.97
2022-11-24T15:42:51.271Z,9.92
2022-11-24T15:43:51.211Z,9.94
2022-11-24T15:44:51.221Z,9.91
2022-11-24T15:45:51.218Z,9.89
2022-11-24T15:46:51.266Z,9.87
2022-11-24T15:47:51.189Z,9.86
2022-11-24T15:48:51.173Z,9.86
2022-11-24T15:49:51.162Z,9.83
2022-11-24T15:50:51.151Z,9.82
2022-11-24T15:51:51.129Z,9.82
2022-11-24T15:52:51.149Z,9.80
2022-11-24T15:53:52.473Z,9.80
2022-11-24T15:54:51.132Z,9.74
2022-11-24T15:55:51.094Z,9.77
2022-11-24T15:56:51.105Z,9.76
2022-11-24T15:57:51.068Z,9.74
2022-11-24T15:58:51.100Z,9.74
2022-11-24T15:59:51.045Z,9.72
2022-11-24T16:00:51.175Z,9.72
2022-11-24T16:01:51.234Z,9.72
2022-11-24T16:02:51.045Z,9.69
2022-11-24T16:03:51.073Z,9.68
2022-11-24T16:04:51.081Z,9.68
2022-11-24T16:05:51.058Z,9.66
2022-11-24T16:06:51.056Z,9.64
2022-11-24T16:07:51.111Z,9.62
2022-11-24T16:08:51.031Z,9.61
2022-11-24T16:09:50.991Z,9.59
2022-11-24T16:10:51.002Z,9.58
2022-11-24T16:11:51.001Z,9.58
2022-11-24T16:12:50.982Z,9.56
2022-11-24T16:13:53.233Z,9.58
2022-11-24T16:14:50.971Z,9.55
2022-11-24T16:15:51.027Z,9.54
2022-11-24T16:16:51.040Z,9.51
2022-11-24T16:17:50.914Z,9.50
2022-11-24T16:18:50.940Z,9.50
2022-11-24T16:20:00.250Z,9.48
2022-11-24T16:20:50.925Z,9.47
2022-11-24T16:21:50.908Z,9.47
2022-11-24T16:22:50.909Z,9.44
2022-11-24T16:23:50.855Z,9.44
2022-11-24T16:24:50.841Z,9.44
2022-11-24T16:25:50.825Z,9.43
2022-11-24T16:26:50.829Z,9.41
2022-11-24T16:27:50.820Z,9.40
2022-11-24T16:28:50.839Z,9.40
2022-11-24T16:29:50.782Z,9.39
2022-11-24T16:30:50.789Z,9.39
2022-11-24T16:31:50.891Z,9.36
2022-11-24T16:32:50.769Z,9.36
2022-11-24T16:33:50.779Z,9.36
2022-11-24T16:34:50.734Z,9.32
2022-11-24T16:35:50.730Z,9.32
2022-11-24T16:36:50.723Z,9.32
2022-11-24T16:37:53.291Z,9.31
2022-11-24T16:38:50.731Z,9.31
2022-11-24T16:39:50.749Z,9.31
2022-11-24T16:40:50.694Z,9.31
2022-11-24T16:41:50.653Z,9.29
2022-11-24T16:42:50.644Z,9.28
2022-11-24T16:43:50.673Z,9.26
2022-11-24T16:44:50.630Z,9.26
2022-11-24T16:45:50.684Z,9.25
2022-11-24T16:46:50.616Z,9.25
2022-11-24T16:47:50.605Z,9.23
2022-11-24T16:48:50.837Z,9.23
2022-11-24T16:49:51.439Z,9.22
2022-11-24T16:50:50.574Z,9.21
2022-11-24T16:51:50.559Z,9.19
2022-11-24T16:52:50.547Z,9.19
2022-11-24T16:53:50.553Z,9.19
2022-11-24T16:54:50.578Z,9.16
2022-11-24T16:55:50.551Z,9.14
2022-11-24T16:56:50.510Z,9.11
2022-11-24T16:57:50.482Z,9.11
2022-11-24T16:58:50.536Z,9.10
2022-11-24T16:59:50.480Z,9.08
2022-11-24T17:00:50.648Z,9.04
2022-11-24T17:01:50.837Z,9.03
2022-11-24T17:02:50.620Z,9.06
2022-11-24T17:03:50.432Z,9.04
2022-11-24T17:04:50.464Z,9.03